Hood Army Air Field


Codes: KHLR/HLR
Name: Hood Army Air Field
City: Fort Hood(Killeen)
Country: United States
Elevation: 924 ft.
Wikipedia:

Photos at Hood Army Air Field


   Photos courtesy of SpottingLog. You can add your own sightings and photos by signing up for a free trial today.



No photos found.

Weather at Hood Army Air Field


Time (UTC)DescriptionTempratureWindCloud coverageVisibilityPressureHumidity
18-Apr-2024 00:00Light Rain27°C13 mph, S47%10000m1011hPa75%
18-Apr-2024 03:00Broken Clouds25°C13 mph, SE73%10000m1012hPa79%
18-Apr-2024 06:00Overcast Clouds22°C13 mph, S100%10000m1013hPa85%
18-Apr-2024 09:00Overcast Clouds21°C7 mph, S100%10000m1011hPa94%
18-Apr-2024 12:00Overcast Clouds21°C11 mph, S89%10000m1012hPa93%
18-Apr-2024 15:00Broken Clouds25°C13 mph, SW57%10000m1013hPa76%
18-Apr-2024 18:00Broken Clouds30°C13 mph, S59%10000m1012hPa54%
18-Apr-2024 21:00Scattered Clouds33°C13 mph, S25%10000m1010hPa44%
19-Apr-2024 00:00Light Rain26°C9 mph, NE42%10000m1009hPa69%
19-Apr-2024 03:00Heavy Intensity Rain20°C18 mph, SW99%10000m1014hPa83%
19-Apr-2024 06:00Light Rain20°C2 mph, NW100%10000m1017hPa92%
19-Apr-2024 09:00Overcast Clouds18°C7 mph, NE100%10000m1016hPa94%
19-Apr-2024 12:00Broken Clouds15°C11 mph, NE84%10000m1017hPa94%
19-Apr-2024 15:00Overcast Clouds18°C11 mph, NE94%10000m1019hPa82%
19-Apr-2024 18:00Overcast Clouds21°C11 mph, NE97%10000m1018hPa73%
19-Apr-2024 21:00Overcast Clouds23°C9 mph, E95%10000m1015hPa67%
20-Apr-2024 00:00Light Rain21°C7 mph, SE98%10000m1015hPa84%
20-Apr-2024 03:00Overcast Clouds20°C7 mph, NE100%10000m1016hPa87%
20-Apr-2024 06:00Overcast Clouds19°C11 mph, NE100%10000m1015hPa89%
20-Apr-2024 09:00Light Rain19°C7 mph, E100%10000m1016hPa95%
20-Apr-2024 12:00Light Rain18°C7 mph, NE100%2192m1015hPa98%
20-Apr-2024 15:00Light Rain19°C11 mph, NE100%9839m1018hPa95%
20-Apr-2024 18:00Overcast Clouds17°C16 mph, NE100%702m1017hPa95%
20-Apr-2024 21:00Light Rain19°C16 mph, NE99%10000m1015hPa90%
21-Apr-2024 00:00Light Rain16°C18 mph, NE100%1869m1014hPa96%
21-Apr-2024 03:00Heavy Intensity Rain15°C18 mph, N100%1853m1014hPa96%
21-Apr-2024 06:00Heavy Intensity Rain16°C9 mph, NE100%3498m1017hPa98%
21-Apr-2024 09:00Moderate Rain14°C11 mph, N100%675m1017hPa98%
21-Apr-2024 12:00Overcast Clouds12°C11 mph, N100%3719m1020hPa97%
21-Apr-2024 15:00Light Rain12°C13 mph, N100%10000m1022hPa95%
21-Apr-2024 18:00Overcast Clouds12°C16 mph, NE100%10000m1022hPa89%
21-Apr-2024 21:00Overcast Clouds16°C16 mph, NE92%10000m1020hPa74%
22-Apr-2024 00:00Overcast Clouds14°C13 mph, NE96%10000m1020hPa79%
22-Apr-2024 03:00Overcast Clouds14°C7 mph, NE100%10000m1022hPa79%
22-Apr-2024 06:00Overcast Clouds13°C4 mph, NE100%10000m1021hPa84%
22-Apr-2024 09:00Overcast Clouds13°C7 mph, NE100%10000m1021hPa85%
22-Apr-2024 12:00Overcast Clouds12°C7 mph, E100%10000m1021hPa86%
22-Apr-2024 15:00Broken Clouds14°C7 mph, E72%10000m1021hPa77%
22-Apr-2024 18:00Broken Clouds18°C7 mph, SE68%10000m1019hPa66%
22-Apr-2024 21:00Broken Clouds21°C7 mph, SE72%10000m1016hPa62%